KCUH/CUH METAR and TAF weather

Enter ICAO airport designator
Station Type Date Time Source
KCUH METAR 2022/05/25 00:55 UTC NOAA

KCUH 250055Z AUTO 00000KT 10SM BKN035 BKN120 17/16 A2974 RMK AO2 LTG DSNT S T01710158


Station Type Date Time Source
KCUH Decoded METAR 2022/05/25 00:55 UTC NOAA

Cushing, Cushing Municipal Airport, OK, United States (KCUH) 35-56-59N 096-46-22W
May 24, 2022 - 08:55 PM EDT / 2022.05.25 0055 UTC
Wind: Calm:0
Visibility: 10 mile(s):0
Sky conditions: mostly cloudy
Weather: Lightning observed
Temperature: 62.8 F (17.1 C)
Dew Point: 60.4 F (15.8 C)
Relative Humidity: 92%
Pressure (altimeter): 29.74 in. Hg (1007 hPa)
ob: KCUH 250055Z AUTO 00000KT 10SM BKN035 BKN120 17/16 A2974 RMK AO2 LTG DSNT S T01710158
cycle: 1

Station Type Date Time Source
KCUH TAF UTC NOAA

Error!

Example: see airport list